sensor_id;sensor_type;location;lat;lon;timestamp;pressure;altitude;pressure_sealevel;temperature;humidity
59787;BME280;45672;51.612;5.536;2023-07-13T00:01:29;101218.41;;;16.81;71.53
59787;BME280;45672;51.612;5.536;2023-07-13T00:03:55;101223.78;;;16.81;71.88
59787;BME280;45672;51.612;5.536;2023-07-13T00:06:21;101219.75;;;16.70;72.20
59787;BME280;45672;51.612;5.536;2023-07-13T00:08:46;101226.13;;;16.69;72.67
59787;BME280;45672;51.612;5.536;2023-07-13T00:11:14;101231.06;;;16.66;73.24
59787;BME280;45672;51.612;5.536;2023-07-13T00:13:41;101230.22;;;16.65;73.16
59787;BME280;45672;51.612;5.536;2023-07-13T00:16:07;101228.00;;;16.69;73.83
59787;BME280;45672;51.612;5.536;2023-07-13T00:18:32;101222.44;;;16.70;73.46
59787;BME280;45672;51.612;5.536;2023-07-13T00:20:58;101223.81;;;16.66;73.22
59787;BME280;45672;51.612;5.536;2023-07-13T00:23:34;101220.84;;;16.61;73.36
59787;BME280;45672;51.612;5.536;2023-07-13T00:26:02;101218.63;;;16.50;73.99
59787;BME280;45672;51.612;5.536;2023-07-13T00:28:28;101222.16;;;16.50;74.41
59787;BME280;45672;51.612;5.536;2023-07-13T00:30:53;101223.19;;;16.49;74.22
59787;BME280;45672;51.612;5.536;2023-07-13T00:33:19;101213.44;;;16.33;74.87
59787;BME280;45672;51.612;5.536;2023-07-13T00:35:45;101213.97;;;16.29;75.48
59787;BME280;45672;51.612;5.536;2023-07-13T00:38:10;101214.91;;;16.21;75.74
59787;BME280;45672;51.612;5.536;2023-07-13T00:40:36;101231.38;;;16.18;76.26
59787;BME280;45672;51.612;5.536;2023-07-13T00:43:01;101216.66;;;16.14;76.77
59787;BME280;45672;51.612;5.536;2023-07-13T00:47:52;101222.59;;;16.24;76.87
59787;BME280;45672;51.612;5.536;2023-07-13T00:50:19;101216.78;;;16.20;77.13
59787;BME280;45672;51.612;5.536;2023-07-13T00:52:49;101233.88;;;16.19;77.28
59787;BME280;45672;51.612;5.536;2023-07-13T00:55:17;101235.91;;;16.17;77.60
59787;BME280;45672;51.612;5.536;2023-07-13T00:57:43;101232.59;;;16.15;77.35
59787;BME280;45672;51.612;5.536;2023-07-13T01:00:09;101232.19;;;16.03;77.97
59787;BME280;45672;51.612;5.536;2023-07-13T01:02:39;101228.56;;;15.96;78.16
59787;BME280;45672;51.612;5.536;2023-07-13T01:05:17;101228.91;;;15.93;78.61
59787;BME280;45672;51.612;5.536;2023-07-13T01:07:43;101220.94;;;15.85;79.15
59787;BME280;45672;51.612;5.536;2023-07-13T01:10:11;101231.69;;;15.85;79.59
59787;BME280;45672;51.612;5.536;2023-07-13T01:12:36;101233.34;;;15.86;80.02
59787;BME280;45672;51.612;5.536;2023-07-13T01:15:03;101225.28;;;15.86;79.71
59787;BME280;45672;51.612;5.536;2023-07-13T01:17:30;101216.41;;;15.85;79.69
59787;BME280;45672;51.612;5.536;2023-07-13T01:19:56;101227.63;;;15.89;80.05
59787;BME280;45672;51.612;5.536;2023-07-13T01:22:22;101233.63;;;15.91;80.30
59787;BME280;45672;51.612;5.536;2023-07-13T01:24:52;101241.56;;;15.84;80.39
59787;BME280;45672;51.612;5.536;2023-07-13T01:27:23;101243.44;;;15.84;80.69
59787;BME280;45672;51.612;5.536;2023-07-13T01:29:50;101234.22;;;15.78;81.16
59787;BME280;45672;51.612;5.536;2023-07-13T01:32:20;101245.13;;;15.77;81.42
59787;BME280;45672;51.612;5.536;2023-07-13T01:34:48;101240.81;;;15.67;81.76
59787;BME280;45672;51.612;5.536;2023-07-13T01:37:14;101235.22;;;15.54;82.68
59787;BME280;45672;51.612;5.536;2023-07-13T01:39:39;101245.72;;;15.64;82.78
59787;BME280;45672;51.612;5.536;2023-07-13T01:42:05;101238.88;;;15.61;82.85
59787;BME280;45672;51.612;5.536;2023-07-13T01:44:31;101236.50;;;15.66;82.64
59787;BME280;45672;51.612;5.536;2023-07-13T01:46:56;101239.88;;;15.60;83.25
59787;BME280;45672;51.612;5.536;2023-07-13T01:49:21;101250.97;;;15.57;83.48
59787;BME280;45672;51.612;5.536;2023-07-13T01:51:47;101246.50;;;15.49;84.10
59787;BME280;45672;51.612;5.536;2023-07-13T01:54:12;101245.47;;;15.50;84.00
59787;BME280;45672;51.612;5.536;2023-07-13T01:56:38;101246.00;;;15.46;84.54
59787;BME280;45672;51.612;5.536;2023-07-13T01:59:04;101244.19;;;15.46;84.68
59787;BME280;45672;51.612;5.536;2023-07-13T02:01:30;101244.31;;;15.45;84.81
59787;BME280;45672;51.612;5.536;2023-07-13T02:03:55;101251.88;;;15.49;85.16
59787;BME280;45672;51.612;5.536;2023-07-13T02:06:21;101239.81;;;15.45;85.06
59787;BME280;45672;51.612;5.536;2023-07-13T02:08:46;101248.50;;;15.47;85.03
59787;BME280;45672;51.612;5.536;2023-07-13T02:11:12;101245.72;;;15.41;85.72
59787;BME280;45672;51.612;5.536;2023-07-13T02:13:37;101247.25;;;15.35;86.13
59787;BME280;45672;51.612;5.536;2023-07-13T02:16:03;101256.94;;;15.36;86.48
59787;BME280;45672;51.612;5.536;2023-07-13T02:18:29;101248.94;;;15.28;86.51
59787;BME280;45672;51.612;5.536;2023-07-13T02:20:54;101248.00;;;15.21;87.04
59787;BME280;45672;51.612;5.536;2023-07-13T02:23:19;101242.16;;;15.17;87.46
59787;BME280;45672;51.612;5.536;2023-07-13T02:25:45;101250.75;;;15.12;87.89
59787;BME280;45672;51.612;5.536;2023-07-13T02:28:11;101248.56;;;15.08;88.41
59787;BME280;45672;51.612;5.536;2023-07-13T02:30:37;101247.38;;;15.10;88.31
59787;BME280;45672;51.612;5.536;2023-07-13T02:33:03;101248.56;;;15.08;88.23
59787;BME280;45672;51.612;5.536;2023-07-13T02:35:29;101244.69;;;15.10;88.64
59787;BME280;45672;51.612;5.536;2023-07-13T02:37:54;101238.88;;;15.07;88.53
59787;BME280;45672;51.612;5.536;2023-07-13T02:40:20;101240.69;;;15.06;88.83
59787;BME280;45672;51.612;5.536;2023-07-13T02:42:45;101246.72;;;15.08;88.80
59787;BME280;45672;51.612;5.536;2023-07-13T02:45:11;101256.91;;;15.13;89.01
59787;BME280;45672;51.612;5.536;2023-07-13T02:47:38;101254.25;;;15.13;88.91
59787;BME280;45672;51.612;5.536;2023-07-13T02:50:03;101255.25;;;15.12;89.32
59787;BME280;45672;51.612;5.536;2023-07-13T02:52:29;101263.97;;;15.14;89.56
59787;BME280;45672;51.612;5.536;2023-07-13T02:54:54;101252.09;;;15.08;89.93
59787;BME280;45672;51.612;5.536;2023-07-13T02:57:19;101262.81;;;15.08;90.07
59787;BME280;45672;51.612;5.536;2023-07-13T02:59:45;101255.28;;;15.04;90.51
59787;BME280;45672;51.612;5.536;2023-07-13T03:02:11;101255.63;;;15.00;90.51
59787;BME280;45672;51.612;5.536;2023-07-13T03:04:37;101265.69;;;14.98;90.66
59787;BME280;45672;51.612;5.536;2023-07-13T03:07:03;101265.19;;;14.95;91.22
59787;BME280;45672;51.612;5.536;2023-07-13T03:09:28;101259.38;;;14.91;91.44
59787;BME280;45672;51.612;5.536;2023-07-13T03:11:54;101263.41;;;14.87;91.81
59787;BME280;45672;51.612;5.536;2023-07-13T03:14:21;101261.72;;;14.86;92.18
59787;BME280;45672;51.612;5.536;2023-07-13T03:16:47;101270.09;;;14.83;92.10
59787;BME280;45672;51.612;5.536;2023-07-13T03:19:12;101270.09;;;14.83;92.20
59787;BME280;45672;51.612;5.536;2023-07-13T03:21:37;101265.41;;;14.85;91.87
59787;BME280;45672;51.612;5.536;2023-07-13T03:24:03;101259.22;;;14.85;91.92
59787;BME280;45672;51.612;5.536;2023-07-13T03:26:29;101266.09;;;14.79;92.28
59787;BME280;45672;51.612;5.536;2023-07-13T03:28:54;101271.97;;;14.74;93.20
59787;BME280;45672;51.612;5.536;2023-07-13T03:31:22;101268.44;;;14.74;93.33
59787;BME280;45672;51.612;5.536;2023-07-13T03:33:48;101271.31;;;14.72;93.87
59787;BME280;45672;51.612;5.536;2023-07-13T03:36:20;101270.81;;;14.69;94.22
59787;BME280;45672;51.612;5.536;2023-07-13T03:38:57;101277.50;;;14.73;93.72
59787;BME280;45672;51.612;5.536;2023-07-13T03:41:24;101269.97;;;14.68;94.67
59787;BME280;45672;51.612;5.536;2023-07-13T03:43:50;101279.50;;;14.71;94.37
59787;BME280;45672;51.612;5.536;2023-07-13T03:46:16;101273.16;;;14.72;94.35
59787;BME280;45672;51.612;5.536;2023-07-13T03:48:43;101267.16;;;14.70;94.34
59787;BME280;45672;51.612;5.536;2023-07-13T03:51:10;101281.84;;;14.74;94.31
59787;BME280;45672;51.612;5.536;2023-07-13T03:53:40;101288.22;;;14.73;94.82
59787;BME280;45672;51.612;5.536;2023-07-13T03:56:07;101279.03;;;14.67;95.12
59787;BME280;45672;51.612;5.536;2023-07-13T03:58:35;101291.06;;;14.71;95.33
59787;BME280;45672;51.612;5.536;2023-07-13T04:01:03;101293.59;;;14.73;95.08
59787;BME280;45672;51.612;5.536;2023-07-13T04:03:29;101285.38;;;14.66;95.27
59787;BME280;45672;51.612;5.536;2023-07-13T04:06:00;101296.59;;;14.70;95.70
59787;BME280;45672;51.612;5.536;2023-07-13T04:08:27;101297.97;;;14.65;96.14
59787;BME280;45672;51.612;5.536;2023-07-13T04:10:54;101308.47;;;14.59;96.69
59787;BME280;45672;51.612;5.536;2023-07-13T04:13:19;101302.94;;;14.60;97.06
59787;BME280;45672;51.612;5.536;2023-07-13T04:15:45;101311.00;;;14.69;96.62
59787;BME280;45672;51.612;5.536;2023-07-13T04:18:10;101310.66;;;14.72;96.90
59787;BME280;45672;51.612;5.536;2023-07-13T04:20:35;101311.34;;;14.65;97.59
59787;BME280;45672;51.612;5.536;2023-07-13T04:23:01;101304.31;;;14.64;97.81
59787;BME280;45672;51.612;5.536;2023-07-13T04:25:26;101305.63;;;14.77;97.62
59787;BME280;45672;51.612;5.536;2023-07-13T04:27:53;101303.59;;;14.79;97.61
59787;BME280;45672;51.612;5.536;2023-07-13T04:30:19;101309.13;;;14.86;97.45
59787;BME280;45672;51.612;5.536;2023-07-13T04:32:44;101316.44;;;15.00;97.00
59787;BME280;45672;51.612;5.536;2023-07-13T04:35:10;101305.56;;;14.93;97.57
59787;BME280;45672;51.612;5.536;2023-07-13T04:37:35;101320.44;;;15.04;97.61
59787;BME280;45672;51.612;5.536;2023-07-13T04:40:01;101316.41;;;15.08;97.24
59787;BME280;45672;51.612;5.536;2023-07-13T04:42:27;101320.06;;;15.15;97.37
59787;BME280;45672;51.612;5.536;2023-07-13T04:44:52;101325.22;;;15.25;97.20
59787;BME280;45672;51.612;5.536;2023-07-13T04:47:18;101324.03;;;15.28;97.62
59787;BME280;45672;51.612;5.536;2023-07-13T04:49:44;101329.00;;;15.39;97.11
59787;BME280;45672;51.612;5.536;2023-07-13T04:52:10;101331.19;;;15.44;97.50
59787;BME280;45672;51.612;5.536;2023-07-13T04:54:36;101326.41;;;15.54;97.28
59787;BME280;45672;51.612;5.536;2023-07-13T04:57:03;101327.69;;;15.66;96.80
59787;BME280;45672;51.612;5.536;2023-07-13T04:59:29;101334.03;;;15.74;96.83
59787;BME280;45672;51.612;5.536;2023-07-13T05:01:55;101331.34;;;15.82;96.38
59787;BME280;45672;51.612;5.536;2023-07-13T05:04:20;101327.63;;;15.83;96.63
59787;BME280;45672;51.612;5.536;2023-07-13T05:06:46;101335.63;;;15.91;96.82
59787;BME280;45672;51.612;5.536;2023-07-13T05:09:11;101343.13;;;15.96;96.91
59787;BME280;45672;51.612;5.536;2023-07-13T05:11:37;101338.72;;;16.03;96.83
59787;BME280;45672;51.612;5.536;2023-07-13T05:14:03;101341.34;;;16.11;96.29
59787;BME280;45672;51.612;5.536;2023-07-13T05:16:28;101341.47;;;16.18;96.37
59787;BME280;45672;51.612;5.536;2023-07-13T05:18:54;101335.19;;;16.26;95.88
59787;BME280;45672;51.612;5.536;2023-07-13T05:21:19;101342.16;;;16.35;95.83
59787;BME280;45672;51.612;5.536;2023-07-13T05:23:45;101348.84;;;16.39;95.61
59787;BME280;45672;51.612;5.536;2023-07-13T05:26:11;101353.38;;;16.38;95.81
59787;BME280;45672;51.612;5.536;2023-07-13T05:28:37;101352.53;;;16.38;96.43
59787;BME280;45672;51.612;5.536;2023-07-13T05:31:03;101356.53;;;16.42;96.39
59787;BME280;45672;51.612;5.536;2023-07-13T05:33:29;101353.47;;;16.45;96.43
59787;BME280;45672;51.612;5.536;2023-07-13T05:35:54;101363.41;;;16.60;96.02
59787;BME280;45672;51.612;5.536;2023-07-13T05:38:20;101358.81;;;16.68;95.48
59787;BME280;45672;51.612;5.536;2023-07-13T05:40:46;101366.53;;;16.71;95.02
59787;BME280;45672;51.612;5.536;2023-07-13T05:43:12;101371.53;;;16.75;95.39
59787;BME280;45672;51.612;5.536;2023-07-13T05:45:38;101370.97;;;16.79;95.26
59787;BME280;45672;51.612;5.536;2023-07-13T05:48:03;101362.13;;;16.94;95.19
59787;BME280;45672;51.612;5.536;2023-07-13T05:50:29;101367.59;;;17.00;94.20
59787;BME280;45672;51.612;5.536;2023-07-13T05:52:54;101369.63;;;16.98;94.21
59787;BME280;45672;51.612;5.536;2023-07-13T05:55:20;101375.47;;;17.02;94.35
59787;BME280;45672;51.612;5.536;2023-07-13T05:57:46;101385.41;;;17.01;94.33
59787;BME280;45672;51.612;5.536;2023-07-13T06:00:12;101381.13;;;16.92;94.89
59787;BME280;45672;51.612;5.536;2023-07-13T06:02:38;101380.75;;;16.95;94.85
59787;BME280;45672;51.612;5.536;2023-07-13T06:05:03;101386.69;;;17.05;93.92
59787;BME280;45672;51.612;5.536;2023-07-13T06:07:29;101383.06;;;16.98;94.96
59787;BME280;45672;51.612;5.536;2023-07-13T06:09:54;101391.59;;;17.02;94.60
59787;BME280;45672;51.612;5.536;2023-07-13T06:12:19;101391.91;;;17.07;94.32
59787;BME280;45672;51.612;5.536;2023-07-13T06:14:45;101397.34;;;17.14;94.16
59787;BME280;45672;51.612;5.536;2023-07-13T06:17:10;101406.53;;;17.19;93.77
59787;BME280;45672;51.612;5.536;2023-07-13T06:19:36;101405.34;;;17.22;93.91
59787;BME280;45672;51.612;5.536;2023-07-13T06:22:01;101390.13;;;17.14;93.73
59787;BME280;45672;51.612;5.536;2023-07-13T06:24:26;101401.63;;;17.23;94.21
59787;BME280;45672;51.612;5.536;2023-07-13T06:26:52;101401.41;;;17.39;93.23
59787;BME280;45672;51.612;5.536;2023-07-13T06:29:17;101401.31;;;17.63;92.56
59787;BME280;45672;51.612;5.536;2023-07-13T06:31:44;101407.69;;;17.77;90.95
59787;BME280;45672;51.612;5.536;2023-07-13T06:34:09;101404.69;;;17.86;90.18
59787;BME280;45672;51.612;5.536;2023-07-13T06:36:35;101394.88;;;17.79;90.16
59787;BME280;45672;51.612;5.536;2023-07-13T06:39:02;101407.56;;;17.85;90.19
59787;BME280;45672;51.612;5.536;2023-07-13T06:41:27;101409.81;;;17.81;89.74
59787;BME280;45672;51.612;5.536;2023-07-13T06:43:53;101423.06;;;17.98;89.81
59787;BME280;45672;51.612;5.536;2023-07-13T06:46:22;101411.63;;;18.11;89.19
59787;BME280;45672;51.612;5.536;2023-07-13T06:48:48;101415.47;;;18.23;88.05
59787;BME280;45672;51.612;5.536;2023-07-13T06:51:14;101415.78;;;18.13;88.26
59787;BME280;45672;51.612;5.536;2023-07-13T06:53:40;101415.88;;;18.20;87.74
59787;BME280;45672;51.612;5.536;2023-07-13T06:56:05;101425.03;;;18.25;87.79
59787;BME280;45672;51.612;5.536;2023-07-13T06:58:31;101409.25;;;18.22;87.78
59787;BME280;45672;51.612;5.536;2023-07-13T07:00:56;101422.03;;;18.35;87.65
59787;BME280;45672;51.612;5.536;2023-07-13T07:03:22;101427.84;;;18.39;86.86
59787;BME280;45672;51.612;5.536;2023-07-13T07:05:47;101431.72;;;18.30;87.54
59787;BME280;45672;51.612;5.536;2023-07-13T07:08:13;101429.41;;;18.26;87.44
59787;BME280;45672;51.612;5.536;2023-07-13T07:10:40;101430.50;;;18.32;87.17
59787;BME280;45672;51.612;5.536;2023-07-13T07:13:05;101427.22;;;18.37;87.32
59787;BME280;45672;51.612;5.536;2023-07-13T07:15:31;101438.63;;;18.39;87.30
59787;BME280;45672;51.612;5.536;2023-07-13T07:17:56;101429.13;;;18.43;86.74
59787;BME280;45672;51.612;5.536;2023-07-13T07:20:22;101419.34;;;18.35;86.71
59787;BME280;45672;51.612;5.536;2023-07-13T07:22:47;101428.50;;;18.41;86.91
59787;BME280;45672;51.612;5.536;2023-07-13T07:25:13;101437.59;;;18.61;86.35
59787;BME280;45672;51.612;5.536;2023-07-13T07:27:39;101437.47;;;18.70;85.45
59787;BME280;45672;51.612;5.536;2023-07-13T07:30:05;101439.56;;;18.74;85.07
59787;BME280;45672;51.612;5.536;2023-07-13T07:32:31;101439.00;;;19.01;84.73
59787;BME280;45672;51.612;5.536;2023-07-13T07:34:57;101452.59;;;19.21;82.61
59787;BME280;45672;51.612;5.536;2023-07-13T07:37:23;101446.72;;;19.45;82.26
59787;BME280;45672;51.612;5.536;2023-07-13T07:39:49;101451.16;;;19.60;81.28
59787;BME280;45672;51.612;5.536;2023-07-13T07:42:14;101440.63;;;19.78;79.69
59787;BME280;45672;51.612;5.536;2023-07-13T07:44:40;101452.38;;;19.86;78.35
59787;BME280;45672;51.612;5.536;2023-07-13T07:47:06;101450.91;;;19.83;79.25
59787;BME280;45672;51.612;5.536;2023-07-13T07:49:32;101440.22;;;20.30;76.91
59787;BME280;45672;51.612;5.536;2023-07-13T07:51:57;101448.34;;;20.50;75.40
59787;BME280;45672;51.612;5.536;2023-07-13T07:54:22;101438.75;;;20.27;75.07
59787;BME280;45672;51.612;5.536;2023-07-13T07:56:48;101449.78;;;20.26;75.05
59787;BME280;45672;51.612;5.536;2023-07-13T07:59:13;101444.66;;;20.91;73.19
59787;BME280;45672;51.612;5.536;2023-07-13T08:01:39;101454.19;;;21.14;71.03
59787;BME280;45672;51.612;5.536;2023-07-13T08:04:04;101448.84;;;21.79;70.51
59787;BME280;45672;51.612;5.536;2023-07-13T08:06:32;101466.91;;;23.57;61.23
59787;BME280;45672;51.612;5.536;2023-07-13T08:08:59;101461.97;;;23.66;58.91
59787;BME280;45672;51.612;5.536;2023-07-13T08:11:24;101459.03;;;23.05;59.66
59787;BME280;45672;51.612;5.536;2023-07-13T08:13:50;101457.84;;;22.50;60.61
59787;BME280;45672;51.612;5.536;2023-07-13T08:16:16;101470.84;;;21.96;64.02
59787;BME280;45672;51.612;5.536;2023-07-13T08:18:41;101463.47;;;22.49;63.27
59787;BME280;45672;51.612;5.536;2023-07-13T08:21:08;101461.38;;;23.82;57.19
59787;BME280;45672;51.612;5.536;2023-07-13T08:23:34;101449.91;;;24.10;55.02
59787;BME280;45672;51.612;5.536;2023-07-13T08:25:59;101462.69;;;25.06;51.81
59787;BME280;45672;51.612;5.536;2023-07-13T08:28:27;101460.44;;;26.37;48.25
59787;BME280;45672;51.612;5.536;2023-07-13T08:30:53;101464.03;;;27.67;43.89
59787;BME280;45672;51.612;5.536;2023-07-13T08:33:19;101463.38;;;28.04;43.31
59787;BME280;45672;51.612;5.536;2023-07-13T08:35:49;101463.09;;;29.35;40.55
59787;BME280;45672;51.612;5.536;2023-07-13T08:38:15;101471.28;;;29.94;38.12
59787;BME280;45672;51.612;5.536;2023-07-13T08:40:42;101465.44;;;29.21;38.38
59787;BME280;45672;51.612;5.536;2023-07-13T08:43:13;101463.22;;;27.66;42.05
59787;BME280;45672;51.612;5.536;2023-07-13T08:45:46;101459.81;;;26.47;45.37
59787;BME280;45672;51.612;5.536;2023-07-13T08:48:26;101454.53;;;26.74;43.99
59787;BME280;45672;51.612;5.536;2023-07-13T08:53:27;101466.75;;;28.71;38.98
59787;BME280;45672;51.612;5.536;2023-07-13T08:55:58;101461.00;;;28.67;37.66
59787;BME280;45672;51.612;5.536;2023-07-13T08:58:25;101461.13;;;27.74;40.16
59787;BME280;45672;51.612;5.536;2023-07-13T09:03:25;101457.84;;;28.53;38.76
59787;BME280;45672;51.612;5.536;2023-07-13T09:05:57;101464.72;;;28.61;38.00
59787;BME280;45672;51.612;5.536;2023-07-13T09:09:02;101462.72;;;28.19;39.01
59787;BME280;45672;51.612;5.536;2023-07-13T09:11:51;101466.75;;;29.14;38.79
59787;BME280;45672;51.612;5.536;2023-07-13T09:17:10;101467.16;;;28.25;38.87
59787;BME280;45672;51.612;5.536;2023-07-13T09:19:37;101462.63;;;28.36;39.13
59787;BME280;45672;51.612;5.536;2023-07-13T09:22:04;101447.94;;;28.20;39.83
59787;BME280;45672;51.612;5.536;2023-07-13T09:27:21;101453.72;;;27.96;39.82
59787;BME280;45672;51.612;5.536;2023-07-13T09:30:09;101456.31;;;28.63;38.95
59787;BME280;45672;51.612;5.536;2023-07-13T09:32:47;101453.94;;;28.44;38.33
59787;BME280;45672;51.612;5.536;2023-07-13T09:35:19;101454.91;;;29.46;35.95
59787;BME280;45672;51.612;5.536;2023-07-13T09:37:46;101455.38;;;30.99;33.88
59787;BME280;45672;51.612;5.536;2023-07-13T09:40:21;101452.06;;;29.88;34.62
59787;BME280;45672;51.612;5.536;2023-07-13T09:42:53;101446.47;;;28.34;37.63
59787;BME280;45672;51.612;5.536;2023-07-13T09:45:29;101449.81;;;27.26;40.10
59787;BME280;45672;51.612;5.536;2023-07-13T09:48:12;101454.00;;;28.54;38.47
59787;BME280;45672;51.612;5.536;2023-07-13T09:50:38;101456.63;;;28.39;37.26
59787;BME280;45672;51.612;5.536;2023-07-13T09:53:14;101463.41;;;30.54;34.71
59787;BME280;45672;51.612;5.536;2023-07-13T09:55:41;101465.59;;;30.93;33.06
59787;BME280;45672;51.612;5.536;2023-07-13T10:00:41;101453.91;;;29.14;35.09
59787;BME280;45672;51.612;5.536;2023-07-13T10:03:21;101455.81;;;28.11;37.59
59787;BME280;45672;51.612;5.536;2023-07-13T10:05:48;101454.31;;;28.58;36.62
59787;BME280;45672;51.612;5.536;2023-07-13T10:10:53;101461.50;;;30.54;34.10
59787;BME280;45672;51.612;5.536;2023-07-13T10:13:29;101468.78;;;31.31;32.00
59787;BME280;45672;51.612;5.536;2023-07-13T10:15:55;101469.38;;;29.99;33.86
59787;BME280;45672;51.612;5.536;2023-07-13T10:18:23;101454.53;;;28.51;36.17
59787;BME280;45672;51.612;5.536;2023-07-13T10:20:54;101472.31;;;27.50;39.02
59787;BME280;45672;51.612;5.536;2023-07-13T10:23:27;101465.84;;;26.66;40.40
59787;BME280;45672;51.612;5.536;2023-07-13T10:25:56;101468.19;;;25.99;41.40
59787;BME280;45672;51.612;5.536;2023-07-13T10:28:32;101467.53;;;25.80;42.04
59787;BME280;45672;51.612;5.536;2023-07-13T10:30:59;101451.34;;;26.31;41.41
59787;BME280;45672;51.612;5.536;2023-07-13T10:33:26;101462.81;;;26.96;39.67
59787;BME280;45672;51.612;5.536;2023-07-13T10:35:57;101463.34;;;28.26;37.66
59787;BME280;45672;51.612;5.536;2023-07-13T10:38:24;101462.25;;;29.35;35.60
59787;BME280;45672;51.612;5.536;2023-07-13T10:41:06;101463.22;;;29.13;35.35
59787;BME280;45672;51.612;5.536;2023-07-13T10:43:40;101464.38;;;27.71;36.92
59787;BME280;45672;51.612;5.536;2023-07-13T10:46:11;101452.81;;;28.13;37.06
59787;BME280;45672;51.612;5.536;2023-07-13T10:48:40;101470.13;;;28.83;36.12
59787;BME280;45672;51.612;5.536;2023-07-13T10:51:07;101471.09;;;28.34;36.50
59787;BME280;45672;51.612;5.536;2023-07-13T10:53:35;101487.31;;;26.74;40.25
59787;BME280;45672;51.612;5.536;2023-07-13T10:59:02;101476.28;;;25.42;43.49
59787;BME280;45672;51.612;5.536;2023-07-13T11:01:40;101506.34;;;25.47;44.41
59787;BME280;45672;51.612;5.536;2023-07-13T11:04:12;101498.06;;;25.30;44.02
59787;BME280;45672;51.612;5.536;2023-07-13T11:06:40;101496.41;;;25.05;45.08
59787;BME280;45672;51.612;5.536;2023-07-13T11:11:43;101505.63;;;25.04;46.41
59787;BME280;45672;51.612;5.536;2023-07-13T11:14:35;101508.34;;;24.92;47.03
59787;BME280;45672;51.612;5.536;2023-07-13T11:17:46;101500.03;;;24.64;46.56
59787;BME280;45672;51.612;5.536;2023-07-13T11:22:53;101502.28;;;24.67;45.02
59787;BME280;45672;51.612;5.536;2023-07-13T11:25:33;101501.00;;;24.93;45.19
59787;BME280;45672;51.612;5.536;2023-07-13T11:30:59;101486.34;;;24.82;45.58
59787;BME280;45672;51.612;5.536;2023-07-13T11:36:06;101486.50;;;23.96;52.01
59787;BME280;45672;51.612;5.536;2023-07-13T11:38:39;101497.38;;;23.59;52.49
59787;BME280;45672;51.612;5.536;2023-07-13T11:41:10;101502.44;;;23.74;53.51
59787;BME280;45672;51.612;5.536;2023-07-13T11:43:40;101508.59;;;23.88;51.55
59787;BME280;45672;51.612;5.536;2023-07-13T11:46:20;101489.22;;;24.57;49.50
59787;BME280;45672;51.612;5.536;2023-07-13T11:48:47;101501.72;;;25.00;49.00
59787;BME280;45672;51.612;5.536;2023-07-13T11:51:22;101497.47;;;25.40;47.52
59787;BME280;45672;51.612;5.536;2023-07-13T11:53:50;101504.31;;;25.66;46.40
59787;BME280;45672;51.612;5.536;2023-07-13T11:56:17;101499.25;;;25.58;46.17
59787;BME280;45672;51.612;5.536;2023-07-13T11:58:42;101501.63;;;25.30;50.39
59787;BME280;45672;51.612;5.536;2023-07-13T12:01:26;101499.28;;;24.56;54.05
59787;BME280;45672;51.612;5.536;2023-07-13T12:03:59;101501.25;;;23.88;55.11
59787;BME280;45672;51.612;5.536;2023-07-13T12:06:29;101491.88;;;23.66;55.28
59787;BME280;45672;51.612;5.536;2023-07-13T12:09:03;101490.38;;;23.51;53.22
59787;BME280;45672;51.612;5.536;2023-07-13T12:11:35;101494.69;;;23.34;54.93
59787;BME280;45672;51.612;5.536;2023-07-13T12:14:03;101489.91;;;23.54;51.86
59787;BME280;45672;51.612;5.536;2023-07-13T12:16:30;101488.38;;;23.77;52.81
59787;BME280;45672;51.612;5.536;2023-07-13T12:18:59;101488.09;;;24.04;51.80
59787;BME280;45672;51.612;5.536;2023-07-13T12:21:33;101492.97;;;24.14;53.01
59787;BME280;45672;51.612;5.536;2023-07-13T12:24:00;101485.00;;;24.31;49.67
59787;BME280;45672;51.612;5.536;2023-07-13T12:26:28;101486.06;;;24.30;50.13
59787;BME280;45672;51.612;5.536;2023-07-13T12:28:54;101487.63;;;24.07;51.32
59787;BME280;45672;51.612;5.536;2023-07-13T12:34:10;101483.47;;;24.04;48.45
59787;BME280;45672;51.612;5.536;2023-07-13T12:36:45;101474.00;;;24.25;45.88
59787;BME280;45672;51.612;5.536;2023-07-13T12:39:17;101471.75;;;24.34;43.42
59787;BME280;45672;51.612;5.536;2023-07-13T12:41:44;101480.84;;;24.70;42.97
59787;BME280;45672;51.612;5.536;2023-07-13T12:44:15;101486.72;;;24.98;42.10
59787;BME280;45672;51.612;5.536;2023-07-13T12:47:02;101469.53;;;25.21;41.97
59787;BME280;45672;51.612;5.536;2023-07-13T12:49:31;101492.03;;;25.28;39.85
59787;BME280;45672;51.612;5.536;2023-07-13T12:52:01;101479.13;;;25.23;40.01
59787;BME280;45672;51.612;5.536;2023-07-13T12:54:28;101483.59;;;25.06;40.59
59787;BME280;45672;51.612;5.536;2023-07-13T12:56:55;101487.19;;;25.06;41.23
59787;BME280;45672;51.612;5.536;2023-07-13T12:59:24;101492.63;;;24.94;41.35
59787;BME280;45672;51.612;5.536;2023-07-13T13:01:51;101486.00;;;25.02;41.62
59787;BME280;45672;51.612;5.536;2023-07-13T13:04:18;101494.50;;;25.41;41.72
59787;BME280;45672;51.612;5.536;2023-07-13T13:06:47;101492.44;;;25.72;40.70
59787;BME280;45672;51.612;5.536;2023-07-13T13:09:15;101487.38;;;25.64;40.70
59787;BME280;45672;51.612;5.536;2023-07-13T13:11:40;101488.00;;;25.42;40.51
59787;BME280;45672;51.612;5.536;2023-07-13T13:14:06;101473.91;;;24.98;40.64
59787;BME280;45672;51.612;5.536;2023-07-13T13:16:35;101489.78;;;25.01;40.16
59787;BME280;45672;51.612;5.536;2023-07-13T13:21:36;101476.63;;;25.10;41.09
59787;BME280;45672;51.612;5.536;2023-07-13T13:24:04;101486.56;;;25.04;41.19
59787;BME280;45672;51.612;5.536;2023-07-13T13:26:30;101496.50;;;24.75;41.62
59787;BME280;45672;51.612;5.536;2023-07-13T13:28:56;101507.81;;;24.30;43.04
59787;BME280;45672;51.612;5.536;2023-07-13T13:31:21;101505.44;;;24.03;43.70